• Join FlightAware (Why Join?)
  • Login
  • US Flag 
02:34PM EST


 

Airport Tracker/Info


-or-


 

Live Flight TrackerFlight Track Log ✈ EJA929 ✈ 15-Oct-2013 ✈ KPNE - KOQU

Flight Track Log - Related Links

Times and Time Zones

All times are in EDT time to prevent confusion due to time zone crossing. See the EJA929 flight status page for this flight to view local times or setup timezone preferences in your user account.

Time Position Orientation Groundspeed Altitude Reporting Facility
EDT Latitude Longitude Course Direction KTS MPH feet Rate Location/Type
11:10AM 40.1000 -75.0000 62° Northeast 183 211 1,100  Level Philadelphia TRACON
11:11AM 40.1333 -74.9167 62° Northeast 228 262 3,000 540 Climbing Philadelphia TRACON
11:13AM 40.1631 -74.7553 76° East 263 303 3,000  Level New York Center
11:14AM 40.1764 -74.6692 79° East 258 297 3,000 240 Level New York Center
11:15AM 40.1897 -74.5775 79° East 253 291 3,500 960 Climbing New York Center
11:16AM 40.1969 -74.4803 84° East 248 285 5,000 720 Climbing New York Center
11:17AM 40.1725 -74.3975 111° Southeast 239 275 5,000 420 Level New York Center
11:18AM 40.1456 -74.3200 114° Southeast 250 288 5,900 1,860 Climbing New York Center
11:19AM 40.1192 -74.2289 111° Southeast 266 306 8,800 2,040 Climbing New York Center
11:20AM 40.0811 -74.1078 112° Southeast 306 352 10,000 600 Climbing New York Center
11:21AM 40.0447 -73.9922 112° Southeast 340 391 10,000  Level New York Center
11:22AM 40.0083 -73.8739 112° Southeast 347 399 10,000  Level New York Center
11:23AM 39.9775 -73.7694 111° Southeast 347 399 10,000 420 Level New York Center
11:24AM 39.9558 -73.6386 102° East 353 406 10,900 2,160 Climbing New York Center
11:25AM 40.0214 -73.5194 54° Northeast 326 375 14,300 1,860 Climbing New York Center
11:27AM 40.1694 -73.3144 47° Northeast 359 413 17,000 840 Climbing Boston Center
11:28AM 40.2533 -73.2042 45° Northeast 393 452 17,000  Level Boston Center
11:29AM 40.3375 -73.0908 46° Northeast 412 474 17,000  Level Boston Center
11:30AM 40.4236 -72.9769 45° Northeast 429 494 17,000  Level Boston Center
11:31AM 40.4969 -72.8603 50° Northeast 421 484 17,000 -120 Level Boston Center
11:32AM 40.5597 -72.7542 52° Northeast 394 453 16,800 -900 Descending Boston Center
11:33AM 40.6206 -72.6478 53° Northeast 376 433 15,300 -1,380 Descending Boston Center
11:34AM 40.6831 -72.5414 52° Northeast 370 426 14,100 -1,260 Descending Boston Center
11:35AM 40.7458 -72.4372 51° Northeast 365 420 12,900 -1,380 Descending Boston Center
11:36AM 40.8039 -72.3386 52° Northeast 359 413 11,400 -960 Descending Boston Center
11:37AM 40.8642 -72.2342 53° Northeast 359 413 11,000 -240 Descending Boston Center
11:38AM 40.9244 -72.1353 51° Northeast 354 407 11,000  Level Boston Center
11:39AM 40.9806 -72.0442 51° Northeast 340 391 11,000  Level Boston Center
11:39AM 40.9825 -72.0358 73° East 349 402 11,000  Level Boston Center
11:40AM 41.0383 -71.9419 52° Northeast 342 394 11,000  Level Boston Center
11:40AM 41.0425 -71.9339 56° Northeast 349 402 11,000  Level Boston Center
11:41AM 41.1006 -71.8450 49° Northeast 342 394 11,000  Level Boston Center
11:41AM 41.1086 -71.8314 52° Northeast 344 396 11,000 -240 Level Boston Center
11:42AM 41.1583 -71.7508 51° Northeast 333 383 10,800 -300 Descending Boston Center
11:42AM 41.1664 -71.7369 52° Northeast 334 384 10,700 -1,380 Descending Boston Center
11:43AM 41.2058 -71.6758 49° Northeast 275 316 9,500 -1,620 Descending Boston Center
11:44AM 41.2592 -71.5897 50° Northeast 279 321 7,600 -1,680 Descending Boston Center
11:45AM 41.3086 -71.5117 50° Northeast 264 304 6,000 -840 Descending Boston Center
11:46AM 41.3622 -71.4417 44° Northeast 267 307 6,000 -660 Level Boston Center
11:47AM 41.4331 -71.4267 North 257 296 4,700 -1,800 Descending Boston Center
11:48AM 41.4914 -71.4147 North 207 238 2,600 -1,860 Descending Boston Center
11:49AM 41.5350 -71.4028 12° North 126 145 1,200 -1,020 Descending Boston Center
11:50AM 41.5722 -71.3939 10° North 129 148 500 -660 Descending Boston Center
11:52AM 41.5833 -71.4000 North  Level FlightAware Approximate
11:59AM 41.5971 -71.4121 North  Level Estimated
12:00PM 41.5971 -71.4121 North  Level Estimated
12:01PM 41.5971 -71.4121 North  Level Estimated
12:02PM 41.5971 -71.4121 North  Level Estimated